sensor_id;sensor_type;location;lat;lon;timestamp;pressure;altitude;pressure_sealevel;temperature;humidity
35778;BME280;21899;42.662;23.316;2023-05-07T00:00:03;94644.41;;;10.81;100.00
35778;BME280;21899;42.662;23.316;2023-05-07T00:02:28;94650.50;;;10.78;100.00
35778;BME280;21899;42.662;23.316;2023-05-07T00:04:54;94650.47;;;10.64;100.00
35778;BME280;21899;42.662;23.316;2023-05-07T00:07:20;94656.59;;;10.61;100.00
35778;BME280;21899;42.662;23.316;2023-05-07T00:09:46;94644.34;;;10.52;100.00
35778;BME280;21899;42.662;23.316;2023-05-07T00:12:11;94658.81;;;10.44;100.00
35778;BME280;21899;42.662;23.316;2023-05-07T00:14:36;94646.16;;;10.34;100.00
35778;BME280;21899;42.662;23.316;2023-05-07T00:17:02;94650.75;;;10.37;100.00
35778;BME280;21899;42.662;23.316;2023-05-07T00:19:27;94637.38;;;10.34;100.00
35778;BME280;21899;42.662;23.316;2023-05-07T00:21:53;94637.38;;;10.34;100.00
35778;BME280;21899;42.662;23.316;2023-05-07T00:24:21;94641.97;;;10.37;100.00
35778;BME280;21899;42.662;23.316;2023-05-07T00:26:47;94629.75;;;10.39;100.00
35778;BME280;21899;42.662;23.316;2023-05-07T00:29:12;94637.38;;;10.37;100.00
35778;BME280;21899;42.662;23.316;2023-05-07T00:31:38;94637.00;;;10.39;100.00
35778;BME280;21899;42.662;23.316;2023-05-07T00:34:03;94636.63;;;10.37;100.00
35778;BME280;21899;42.662;23.316;2023-05-07T00:36:28;94635.47;;;10.38;100.00
35778;BME280;21899;42.662;23.316;2023-05-07T00:38:54;94634.28;;;10.28;100.00
35778;BME280;21899;42.662;23.316;2023-05-07T00:41:20;94642.69;;;10.30;100.00
35778;BME280;21899;42.662;23.316;2023-05-07T00:43:46;94635.03;;;10.25;100.00
35778;BME280;21899;42.662;23.316;2023-05-07T00:46:13;94638.81;;;10.17;100.00
35778;BME280;21899;42.662;23.316;2023-05-07T00:48:38;94649.06;;;10.08;100.00
35778;BME280;21899;42.662;23.316;2023-05-07T00:51:04;94645.59;;;10.04;100.00
35778;BME280;21899;42.662;23.316;2023-05-07T00:53:30;94651.69;;;10.05;100.00
35778;BME280;21899;42.662;23.316;2023-05-07T00:55:56;94643.22;;;9.92;100.00
35778;BME280;21899;42.662;23.316;2023-05-07T00:58:21;94652.06;;;9.96;100.00
35778;BME280;21899;42.662;23.316;2023-05-07T01:00:47;94649.03;;;10.01;100.00
35778;BME280;21899;42.662;23.316;2023-05-07T01:03:12;94646.72;;;9.96;100.00
35778;BME280;21899;42.662;23.316;2023-05-07T01:05:38;94635.88;;;9.79;100.00
35778;BME280;21899;42.662;23.316;2023-05-07T01:08:04;94627.13;;;9.82;100.00
35778;BME280;21899;42.662;23.316;2023-05-07T01:10:30;94643.97;;;9.86;100.00
35778;BME280;21899;42.662;23.316;2023-05-07T01:12:57;94642.81;;;9.87;100.00
35778;BME280;21899;42.662;23.316;2023-05-07T01:15:23;94637.81;;;9.78;100.00
35778;BME280;21899;42.662;23.316;2023-05-07T01:17:49;94645.44;;;9.76;100.00
35778;BME280;21899;42.662;23.316;2023-05-07T01:20:15;94647.66;;;9.67;100.00
35778;BME280;21899;42.662;23.316;2023-05-07T01:22:43;94643.72;;;9.54;100.00
35778;BME280;21899;42.662;23.316;2023-05-07T01:25:08;94644.47;;;9.51;100.00
35778;BME280;21899;42.662;23.316;2023-05-07T01:27:34;94645.22;;;9.48;100.00
35778;BME280;21899;42.662;23.316;2023-05-07T01:30:02;94637.91;;;9.38;100.00
35778;BME280;21899;42.662;23.316;2023-05-07T01:32:40;94645.94;;;9.42;100.00
35778;BME280;21899;42.662;23.316;2023-05-07T01:35:11;94644.34;;;9.37;100.00
35778;BME280;21899;42.662;23.316;2023-05-07T01:37:38;94634.03;;;9.32;100.00
35778;BME280;21899;42.662;23.316;2023-05-07T01:40:04;94637.09;;;9.34;100.00
35778;BME280;21899;42.662;23.316;2023-05-07T01:42:31;94628.69;;;9.32;100.00
35778;BME280;21899;42.662;23.316;2023-05-07T01:44:56;94621.41;;;9.29;100.00
35778;BME280;21899;42.662;23.316;2023-05-07T01:47:22;94617.28;;;9.35;100.00
35778;BME280;21899;42.662;23.316;2023-05-07T01:49:48;94625.31;;;9.39;100.00
35778;BME280;21899;42.662;23.316;2023-05-07T01:52:14;94619.94;;;9.35;100.00
35778;BME280;21899;42.662;23.316;2023-05-07T01:54:39;94620.72;;;9.39;100.00
35778;BME280;21899;42.662;23.316;2023-05-07T01:57:04;94608.41;;;9.27;100.00
35778;BME280;21899;42.662;23.316;2023-05-07T01:59:30;94601.59;;;9.30;100.00
35778;BME280;21899;42.662;23.316;2023-05-07T02:01:55;94604.66;;;9.36;100.00
35778;BME280;21899;42.662;23.316;2023-05-07T02:04:21;94595.50;;;9.33;100.00
35778;BME280;21899;42.662;23.316;2023-05-07T02:06:46;94589.75;;;9.31;100.00
35778;BME280;21899;42.662;23.316;2023-05-07T02:09:12;94589.41;;;9.36;100.00
35778;BME280;21899;42.662;23.316;2023-05-07T02:11:40;94584.47;;;9.38;100.00
35778;BME280;21899;42.662;23.316;2023-05-07T02:14:05;94597.50;;;9.47;100.00
35778;BME280;21899;42.662;23.316;2023-05-07T02:16:31;94584.13;;;9.43;100.00
35778;BME280;21899;42.662;23.316;2023-05-07T02:18:56;94578.78;;;9.43;100.00
35778;BME280;21899;42.662;23.316;2023-05-07T02:21:24;94582.63;;;9.49;100.00
35778;BME280;21899;42.662;23.316;2023-05-07T02:23:50;94598.75;;;9.60;100.00
35778;BME280;21899;42.662;23.316;2023-05-07T02:26:15;94584.16;;;9.47;100.00
35778;BME280;21899;42.662;23.316;2023-05-07T02:28:41;94598.34;;;9.58;100.00
35778;BME280;21899;42.662;23.316;2023-05-07T02:31:06;94595.66;;;9.58;100.00
35778;BME280;21899;42.662;23.316;2023-05-07T02:33:32;94586.09;;;9.53;100.00
35778;BME280;21899;42.662;23.316;2023-05-07T02:36:05;94594.13;;;9.53;100.00
35778;BME280;21899;42.662;23.316;2023-05-07T02:38:31;94589.53;;;9.50;100.00
35778;BME280;21899;42.662;23.316;2023-05-07T02:40:57;94594.53;;;9.55;100.00
35778;BME280;21899;42.662;23.316;2023-05-07T02:43:22;94588.72;;;9.46;100.00
35778;BME280;21899;42.662;23.316;2023-05-07T02:45:47;94591.00;;;9.44;100.00
35778;BME280;21899;42.662;23.316;2023-05-07T02:48:13;94588.72;;;9.46;100.00
35778;BME280;21899;42.662;23.316;2023-05-07T02:50:38;94606.28;;;9.47;100.00
35778;BME280;21899;42.662;23.316;2023-05-07T02:53:04;94601.25;;;9.35;100.00
35778;BME280;21899;42.662;23.316;2023-05-07T02:55:30;94596.25;;;9.30;100.00
35778;BME280;21899;42.662;23.316;2023-05-07T02:57:55;94597.00;;;9.27;100.00
35778;BME280;21899;42.662;23.316;2023-05-07T03:00:21;94607.69;;;9.34;100.00
35778;BME280;21899;42.662;23.316;2023-05-07T03:02:46;94606.13;;;9.26;100.00
35778;BME280;21899;42.662;23.316;2023-05-07T03:05:12;94606.13;;;9.26;100.00
35778;BME280;21899;42.662;23.316;2023-05-07T03:07:38;94608.38;;;9.24;100.00
35778;BME280;21899;42.662;23.316;2023-05-07T03:10:04;94618.34;;;9.27;100.00
35778;BME280;21899;42.662;23.316;2023-05-07T03:12:30;94618.72;;;9.29;100.00
35778;BME280;21899;42.662;23.316;2023-05-07T03:14:56;94620.69;;;9.32;100.00
35778;BME280;21899;42.662;23.316;2023-05-07T03:17:22;94629.06;;;9.34;100.00
35778;BME280;21899;42.662;23.316;2023-05-07T03:19:47;94623.34;;;9.32;100.00
35778;BME280;21899;42.662;23.316;2023-05-07T03:22:13;94625.63;;;9.30;100.00
35778;BME280;21899;42.662;23.316;2023-05-07T03:24:39;94630.63;;;9.35;100.00
35778;BME280;21899;42.662;23.316;2023-05-07T03:27:04;94625.28;;;9.35;100.00
35778;BME280;21899;42.662;23.316;2023-05-07T03:29:30;94621.47;;;9.36;100.00
35778;BME280;21899;42.662;23.316;2023-05-07T03:31:55;94635.97;;;9.35;100.00
35778;BME280;21899;42.662;23.316;2023-05-07T03:34:21;94610.75;;;9.33;100.00
35778;BME280;21899;42.662;23.316;2023-05-07T03:36:50;94633.75;;;9.48;100.00
35778;BME280;21899;42.662;23.316;2023-05-07T03:39:16;94626.88;;;9.43;100.00
35778;BME280;21899;42.662;23.316;2023-05-07T03:41:42;94641.78;;;9.48;100.00
35778;BME280;21899;42.662;23.316;2023-05-07T03:44:07;94640.66;;;9.52;100.00
35778;BME280;21899;42.662;23.316;2023-05-07T03:46:33;94630.78;;;9.56;100.00
35778;BME280;21899;42.662;23.316;2023-05-07T03:48:59;94646.88;;;9.63;100.00
35778;BME280;21899;42.662;23.316;2023-05-07T03:51:24;94631.94;;;9.62;100.00
35778;BME280;21899;42.662;23.316;2023-05-07T03:53:50;94639.69;;;9.74;100.00
35778;BME280;21899;42.662;23.316;2023-05-07T03:56:18;94646.25;;;9.87;100.00
35778;BME280;21899;42.662;23.316;2023-05-07T03:58:44;94649.34;;;9.93;100.00
35778;BME280;21899;42.662;23.316;2023-05-07T04:01:09;94632.19;;;9.97;100.00
35778;BME280;21899;42.662;23.316;2023-05-07T04:03:35;94650.94;;;10.04;100.00
35778;BME280;21899;42.662;23.316;2023-05-07T04:06:00;94654.03;;;10.06;100.00
35778;BME280;21899;42.662;23.316;2023-05-07T04:08:26;94660.97;;;10.21;100.00
35778;BME280;21899;42.662;23.316;2023-05-07T04:10:58;94656.78;;;10.20;100.00
35778;BME280;21899;42.662;23.316;2023-05-07T04:13:24;94662.88;;;10.17;100.00
35778;BME280;21899;42.662;23.316;2023-05-07T04:15:51;94663.66;;;10.21;100.00
35778;BME280;21899;42.662;23.316;2023-05-07T04:18:16;94680.19;;;10.37;100.00
35778;BME280;21899;42.662;23.316;2023-05-07T04:20:41;94679.53;;;10.62;100.00
35778;BME280;21899;42.662;23.316;2023-05-07T04:23:07;94673.84;;;10.74;100.00
35778;BME280;21899;42.662;23.316;2023-05-07T04:25:33;94691.50;;;10.96;100.00
35778;BME280;21899;42.662;23.316;2023-05-07T04:27:59;94698.06;;;11.16;100.00
35778;BME280;21899;42.662;23.316;2023-05-07T04:30:24;94693.13;;;11.32;100.00
35778;BME280;21899;42.662;23.316;2023-05-07T04:32:50;94692.00;;;11.43;100.00
35778;BME280;21899;42.662;23.316;2023-05-07T04:35:16;94700.84;;;11.82;100.00
35778;BME280;21899;42.662;23.316;2023-05-07T04:37:41;94690.41;;;12.44;96.57
35778;BME280;21899;42.662;23.316;2023-05-07T04:40:07;94702.47;;;12.91;91.15
35778;BME280;21899;42.662;23.316;2023-05-07T04:42:33;94703.50;;;13.29;88.18
35778;BME280;21899;42.662;23.316;2023-05-07T04:44:58;94701.97;;;13.79;86.62
35778;BME280;21899;42.662;23.316;2023-05-07T04:47:23;94713.16;;;14.25;82.68
35778;BME280;21899;42.662;23.316;2023-05-07T04:49:49;94698.28;;;14.51;81.22
35778;BME280;21899;42.662;23.316;2023-05-07T04:52:14;94705.38;;;15.01;78.59
35778;BME280;21899;42.662;23.316;2023-05-07T04:54:40;94695.66;;;15.37;75.43
35778;BME280;21899;42.662;23.316;2023-05-07T04:57:05;94702.72;;;15.85;73.97
35778;BME280;21899;42.662;23.316;2023-05-07T04:59:32;94707.13;;;16.21;71.84
35778;BME280;21899;42.662;23.316;2023-05-07T05:01:57;94710.94;;;16.47;69.14
35778;BME280;21899;42.662;23.316;2023-05-07T05:04:23;94705.50;;;16.70;67.77
35778;BME280;21899;42.662;23.316;2023-05-07T05:06:48;94700.88;;;16.70;67.01
35778;BME280;21899;42.662;23.316;2023-05-07T05:09:13;94700.78;;;17.13;65.92
35778;BME280;21899;42.662;23.316;2023-05-07T05:11:39;94695.97;;;17.40;64.17
35778;BME280;21899;42.662;23.316;2023-05-07T05:14:05;94696.59;;;17.64;62.68
35778;BME280;21899;42.662;23.316;2023-05-07T05:16:30;94698.06;;;17.68;61.77
35778;BME280;21899;42.662;23.316;2023-05-07T05:18:56;94691.53;;;17.66;61.14
35778;BME280;21899;42.662;23.316;2023-05-07T05:21:21;94708.22;;;17.45;62.09
35778;BME280;21899;42.662;23.316;2023-05-07T05:23:46;94702.97;;;17.73;61.88
35778;BME280;21899;42.662;23.316;2023-05-07T05:26:12;94690.03;;;17.65;61.62
35778;BME280;21899;42.662;23.316;2023-05-07T05:28:38;94706.13;;;17.88;60.99
35778;BME280;21899;42.662;23.316;2023-05-07T05:31:04;94695.53;;;18.09;60.13
35778;BME280;21899;42.662;23.316;2023-05-07T05:33:30;94694.34;;;18.10;59.07
35778;BME280;21899;42.662;23.316;2023-05-07T05:35:55;94705.03;;;18.17;59.45
35778;BME280;21899;42.662;23.316;2023-05-07T05:38:21;94707.56;;;17.76;60.32
35778;BME280;21899;42.662;23.316;2023-05-07T05:40:46;94715.72;;;17.37;61.64
35778;BME280;21899;42.662;23.316;2023-05-07T05:43:13;94706.53;;;17.15;63.39
35778;BME280;21899;42.662;23.316;2023-05-07T05:45:38;94707.00;;;17.49;62.82
35778;BME280;21899;42.662;23.316;2023-05-07T05:48:04;94713.06;;;17.89;60.71
35778;BME280;21899;42.662;23.316;2023-05-07T05:50:30;94715.75;;;17.89;59.85
35778;BME280;21899;42.662;23.316;2023-05-07T05:52:55;94709.06;;;17.77;59.95
35778;BME280;21899;42.662;23.316;2023-05-07T05:55:21;94704.41;;;17.78;60.96
35778;BME280;21899;42.662;23.316;2023-05-07T05:57:47;94710.53;;;17.46;61.32
35778;BME280;21899;42.662;23.316;2023-05-07T06:00:13;94709.00;;;17.26;62.12
35778;BME280;21899;42.662;23.316;2023-05-07T06:02:38;94715.22;;;17.07;62.95
35778;BME280;21899;42.662;23.316;2023-05-07T06:05:04;94711.38;;;17.04;63.74
35778;BME280;21899;42.662;23.316;2023-05-07T06:07:30;94717.97;;;17.03;63.74
35778;BME280;21899;42.662;23.316;2023-05-07T06:09:55;94722.84;;;16.92;64.31
35778;BME280;21899;42.662;23.316;2023-05-07T06:12:21;94714.97;;;16.58;64.46
35778;BME280;21899;42.662;23.316;2023-05-07T06:14:46;94713.47;;;16.34;66.11
35778;BME280;21899;42.662;23.316;2023-05-07T06:17:12;94706.63;;;16.26;65.85
35778;BME280;21899;42.662;23.316;2023-05-07T06:19:38;94703.25;;;15.99;66.83
35778;BME280;21899;42.662;23.316;2023-05-07T06:22:03;94709.63;;;16.09;67.96
35778;BME280;21899;42.662;23.316;2023-05-07T06:24:29;94710.56;;;16.22;67.72
35778;BME280;21899;42.662;23.316;2023-05-07T06:26:54;94717.44;;;16.26;67.59
35778;BME280;21899;42.662;23.316;2023-05-07T06:29:20;94710.00;;;16.11;67.74
35778;BME280;21899;42.662;23.316;2023-05-07T06:31:45;94696.09;;;16.12;67.90
35778;BME280;21899;42.662;23.316;2023-05-07T06:34:11;94697.38;;;16.27;67.88
35778;BME280;21899;42.662;23.316;2023-05-07T06:36:40;94697.88;;;16.42;67.11
35778;BME280;21899;42.662;23.316;2023-05-07T06:39:05;94696.19;;;16.51;66.45
35778;BME280;21899;42.662;23.316;2023-05-07T06:41:31;94694.59;;;16.54;65.61
35778;BME280;21899;42.662;23.316;2023-05-07T06:43:56;94694.59;;;16.54;66.65
35778;BME280;21899;42.662;23.316;2023-05-07T06:46:21;94692.44;;;16.45;66.89
35778;BME280;21899;42.662;23.316;2023-05-07T06:48:47;94678.09;;;16.48;67.39
35778;BME280;21899;42.662;23.316;2023-05-07T06:51:12;94678.28;;;16.61;67.23
35778;BME280;21899;42.662;23.316;2023-05-07T06:53:38;94673.59;;;16.61;66.58
35778;BME280;21899;42.662;23.316;2023-05-07T06:56:03;94673.59;;;16.61;65.63
35778;BME280;21899;42.662;23.316;2023-05-07T06:58:29;94667.59;;;16.73;65.76
35778;BME280;21899;42.662;23.316;2023-05-07T07:00:55;94677.63;;;16.92;65.30
35778;BME280;21899;42.662;23.316;2023-05-07T07:03:20;94672.56;;;16.94;65.36
35778;BME280;21899;42.662;23.316;2023-05-07T07:05:46;94676.13;;;16.91;65.62
35778;BME280;21899;42.662;23.316;2023-05-07T07:08:11;94676.88;;;16.92;66.89
35778;BME280;21899;42.662;23.316;2023-05-07T07:10:36;94662.19;;;16.93;66.38
35778;BME280;21899;42.662;23.316;2023-05-07T07:13:02;94671.25;;;17.03;66.53
35778;BME280;21899;42.662;23.316;2023-05-07T07:15:27;94671.72;;;17.17;65.77
35778;BME280;21899;42.662;23.316;2023-05-07T07:17:52;94664.78;;;17.16;66.27
35778;BME280;21899;42.662;23.316;2023-05-07T07:20:18;94672.00;;;17.03;66.40
35778;BME280;21899;42.662;23.316;2023-05-07T07:22:43;94667.03;;;17.02;67.88
35778;BME280;21899;42.662;23.316;2023-05-07T07:25:09;94667.94;;;16.95;67.41
35778;BME280;21899;42.662;23.316;2023-05-07T07:27:36;94668.97;;;17.01;67.00
35778;BME280;21899;42.662;23.316;2023-05-07T07:30:02;94662.28;;;17.06;66.37
35778;BME280;21899;42.662;23.316;2023-05-07T07:32:28;94661.19;;;17.03;66.93
35778;BME280;21899;42.662;23.316;2023-05-07T07:34:53;94653.28;;;17.12;66.19
35778;BME280;21899;42.662;23.316;2023-05-07T07:37:18;94666.16;;;17.24;66.22
35778;BME280;21899;42.662;23.316;2023-05-07T07:39:44;94668.34;;;17.29;65.92
35778;BME280;21899;42.662;23.316;2023-05-07T07:42:10;94674.78;;;17.55;64.99
35778;BME280;21899;42.662;23.316;2023-05-07T07:44:35;94663.25;;;17.51;62.27
35778;BME280;21899;42.662;23.316;2023-05-07T07:47:01;94673.94;;;17.58;62.76
35778;BME280;21899;42.662;23.316;2023-05-07T07:49:26;94665.25;;;17.66;61.98
35778;BME280;21899;42.662;23.316;2023-05-07T07:51:52;94672.78;;;17.75;61.55
35778;BME280;21899;42.662;23.316;2023-05-07T07:54:17;94685.19;;;17.56;61.73
35778;BME280;21899;42.662;23.316;2023-05-07T07:56:42;94690.41;;;17.47;61.68
35778;BME280;21899;42.662;23.316;2023-05-07T07:59:08;94681.97;;;17.61;61.57
35778;BME280;21899;42.662;23.316;2023-05-07T08:01:33;94677.59;;;17.67;61.41
35778;BME280;21899;42.662;23.316;2023-05-07T08:03:59;94679.72;;;17.76;60.93
35778;BME280;21899;42.662;23.316;2023-05-07T08:06:24;94677.59;;;17.83;59.55
35778;BME280;21899;42.662;23.316;2023-05-07T08:08:51;94675.22;;;17.85;59.81
35778;BME280;21899;42.662;23.316;2023-05-07T08:11:17;94661.34;;;17.99;59.76
35778;BME280;21899;42.662;23.316;2023-05-07T08:13:42;94659.50;;;17.96;58.37
35778;BME280;21899;42.662;23.316;2023-05-07T08:16:08;94675.06;;;17.92;58.73
35778;BME280;21899;42.662;23.316;2023-05-07T08:18:34;94668.78;;;17.95;58.54
35778;BME280;21899;42.662;23.316;2023-05-07T08:21:00;94665.06;;;18.05;56.73
35778;BME280;21899;42.662;23.316;2023-05-07T08:23:26;94651.09;;;18.07;57.73
35778;BME280;21899;42.662;23.316;2023-05-07T08:25:51;94664.53;;;18.27;56.95
35778;BME280;21899;42.662;23.316;2023-05-07T08:28:17;94663.50;;;18.53;56.86
35778;BME280;21899;42.662;23.316;2023-05-07T08:30:42;94655.94;;;18.60;55.87
35778;BME280;21899;42.662;23.316;2023-05-07T08:33:11;94661.88;;;18.84;54.71
35778;BME280;21899;42.662;23.316;2023-05-07T08:35:36;94652.69;;;18.94;54.58
35778;BME280;21899;42.662;23.316;2023-05-07T08:38:02;94656.91;;;18.95;50.56
35778;BME280;21899;42.662;23.316;2023-05-07T08:40:28;94652.94;;;19.12;50.49
35778;BME280;21899;42.662;23.316;2023-05-07T08:42:54;94656.63;;;19.18;50.62
35778;BME280;21899;42.662;23.316;2023-05-07T08:45:21;94650.13;;;19.15;49.75
35778;BME280;21899;42.662;23.316;2023-05-07T08:47:52;94646.09;;;19.20;49.79
35778;BME280;21899;42.662;23.316;2023-05-07T08:50:20;94649.06;;;19.51;48.33
35778;BME280;21899;42.662;23.316;2023-05-07T08:52:45;94645.81;;;19.68;47.78
35778;BME280;21899;42.662;23.316;2023-05-07T08:55:12;94646.56;;;19.69;47.00
35778;BME280;21899;42.662;23.316;2023-05-07T08:57:38;94646.47;;;19.85;46.19
35778;BME280;21899;42.662;23.316;2023-05-07T09:00:04;94629.47;;;19.93;46.62
35778;BME280;21899;42.662;23.316;2023-05-07T09:02:32;94637.47;;;20.22;44.76
35778;BME280;21899;42.662;23.316;2023-05-07T09:04:57;94634.66;;;20.25;44.08
35778;BME280;21899;42.662;23.316;2023-05-07T09:07:23;94636.91;;;20.39;44.33
35778;BME280;21899;42.662;23.316;2023-05-07T09:09:50;94623.25;;;20.52;44.20
35778;BME280;21899;42.662;23.316;2023-05-07T09:12:15;94630.78;;;20.69;43.70
35778;BME280;21899;42.662;23.316;2023-05-07T09:14:40;94629.88;;;20.72;43.51
35778;BME280;21899;42.662;23.316;2023-05-07T09:17:06;94630.78;;;20.69;42.58
35778;BME280;21899;42.662;23.316;2023-05-07T09:19:31;94630.78;;;20.69;42.69
35778;BME280;21899;42.662;23.316;2023-05-07T09:22:04;94631.22;;;20.68;42.54
35778;BME280;21899;42.662;23.316;2023-05-07T09:24:30;94624.88;;;20.49;42.26
35778;BME280;21899;42.662;23.316;2023-05-07T09:27:00;94619.38;;;20.40;42.02
35778;BME280;21899;42.662;23.316;2023-05-07T09:29:26;94627.22;;;20.38;42.40
35778;BME280;21899;42.662;23.316;2023-05-07T09:31:54;94615.44;;;20.41;42.32
35778;BME280;21899;42.662;23.316;2023-05-07T09:34:20;94615.72;;;20.34;40.89
35778;BME280;21899;42.662;23.316;2023-05-07T09:36:45;94609.88;;;20.23;41.78
35778;BME280;21899;42.662;23.316;2023-05-07T09:39:11;94612.47;;;20.14;40.49
35778;BME280;21899;42.662;23.316;2023-05-07T09:41:46;94614.09;;;20.12;40.66
35778;BME280;21899;42.662;23.316;2023-05-07T09:44:15;94615.28;;;20.23;39.49
35778;BME280;21899;42.662;23.316;2023-05-07T09:46:44;94618.56;;;20.18;40.72
35778;BME280;21899;42.662;23.316;2023-05-07T09:49:18;94601.19;;;20.03;40.85
35778;BME280;21899;42.662;23.316;2023-05-07T09:51:48;94599.81;;;19.99;41.07
35778;BME280;21899;42.662;23.316;2023-05-07T09:54:15;94603.78;;;20.07;40.76
35778;BME280;21899;42.662;23.316;2023-05-07T09:56:42;94604.31;;;20.27;40.69
35778;BME280;21899;42.662;23.316;2023-05-07T09:59:10;94610.22;;;20.47;39.86
35778;BME280;21899;42.662;23.316;2023-05-07T10:01:37;94595.53;;;20.44;38.42
35778;BME280;21899;42.662;23.316;2023-05-07T10:04:03;94601.81;;;20.54;37.80
35778;BME280;21899;42.662;23.316;2023-05-07T10:06:30;94603.28;;;20.67;37.67
35778;BME280;21899;42.662;23.316;2023-05-07T10:08:56;94591.56;;;20.80;37.28
35778;BME280;21899;42.662;23.316;2023-05-07T10:11:22;94594.41;;;20.98;36.76
35778;BME280;21899;42.662;23.316;2023-05-07T10:13:48;94584.56;;;21.22;36.94
35778;BME280;21899;42.662;23.316;2023-05-07T10:16:14;94574.38;;;21.53;37.01
35778;BME280;21899;42.662;23.316;2023-05-07T10:18:40;94581.19;;;21.88;36.33
35778;BME280;21899;42.662;23.316;2023-05-07T10:21:08;94576.81;;;22.27;35.52
35778;BME280;21899;42.662;23.316;2023-05-07T10:23:36;94573.66;;;22.55;34.61
35778;BME280;21899;42.662;23.316;2023-05-07T10:26:05;94569.09;;;22.52;34.50
35778;BME280;21899;42.662;23.316;2023-05-07T10:28:36;94564.88;;;22.60;35.35
35778;BME280;21899;42.662;23.316;2023-05-07T10:33:41;94568.16;;;23.42;33.98
35778;BME280;21899;42.662;23.316;2023-05-07T10:36:09;94559.16;;;23.51;33.17
35778;BME280;21899;42.662;23.316;2023-05-07T10:38:34;94555.63;;;23.59;32.74
35778;BME280;21899;42.662;23.316;2023-05-07T10:41:00;94569.00;;;23.06;32.94
35778;BME280;21899;42.662;23.316;2023-05-07T10:43:41;94558.75;;;22.74;33.61
35778;BME280;21899;42.662;23.316;2023-05-07T10:46:17;94559.41;;;22.60;33.92
35778;BME280;21899;42.662;23.316;2023-05-07T10:51:28;94565.13;;;22.08;34.69
35778;BME280;21899;42.662;23.316;2023-05-07T10:56:39;94549.25;;;21.49;34.99
35778;BME280;21899;42.662;23.316;2023-05-07T10:59:34;94554.75;;;21.58;35.27
35778;BME280;21899;42.662;23.316;2023-05-07T11:02:02;94546.44;;;21.61;35.58
35778;BME280;21899;42.662;23.316;2023-05-07T11:04:29;94548.97;;;21.56;35.11
35778;BME280;21899;42.662;23.316;2023-05-07T11:15:10;94547.72;;;21.87;35.05
35778;BME280;21899;42.662;23.316;2023-05-07T11:17:56;94547.22;;;21.80;34.58
35778;BME280;21899;42.662;23.316;2023-05-07T11:20:45;94548.31;;;21.91;34.56
35778;BME280;21899;42.662;23.316;2023-05-07T11:28:29;94523.78;;;22.01;34.66
35778;BME280;21899;42.662;23.316;2023-05-07T11:30:56;94536.38;;;22.07;34.71
35778;BME280;21899;42.662;23.316;2023-05-07T11:33:22;94539.84;;;21.98;33.00
35778;BME280;21899;42.662;23.316;2023-05-07T11:35:47;94525.91;;;21.87;33.53
35778;BME280;21899;42.662;23.316;2023-05-07T11:38:13;94526.97;;;21.81;34.03
35778;BME280;21899;42.662;23.316;2023-05-07T11:40:57;94530.59;;;21.78;34.34
35778;BME280;21899;42.662;23.316;2023-05-07T11:43:24;94515.09;;;21.66;34.45
35778;BME280;21899;42.662;23.316;2023-05-07T11:45:50;94526.72;;;21.57;34.75
35778;BME280;21899;42.662;23.316;2023-05-07T11:48:16;94518.38;;;21.43;34.04
35778;BME280;21899;42.662;23.316;2023-05-07T11:50:52;94533.22;;;21.42;35.09
35778;BME280;21899;42.662;23.316;2023-05-07T11:53:24;94526.72;;;21.48;35.15
35778;BME280;21899;42.662;23.316;2023-05-07T11:55:55;94539.88;;;21.50;34.41
35778;BME280;21899;42.662;23.316;2023-05-07T11:58:22;94514.94;;;21.51;34.55
35778;BME280;21899;42.662;23.316;2023-05-07T12:00:49;94526.97;;;21.81;34.87
35778;BME280;21899;42.662;23.316;2023-05-07T12:03:15;94516.69;;;22.03;33.57
35778;BME280;21899;42.662;23.316;2023-05-07T12:05:40;94517.44;;;22.22;33.27
35778;BME280;21899;42.662;23.316;2023-05-07T12:08:07;94502.72;;;22.37;33.27
35778;BME280;21899;42.662;23.316;2023-05-07T12:10:32;94509.69;;;22.56;32.74
35778;BME280;21899;42.662;23.316;2023-05-07T12:12:58;94495.78;;;22.54;32.28
35778;BME280;21899;42.662;23.316;2023-05-07T12:15:23;94494.66;;;22.70;32.53
35778;BME280;21899;42.662;23.316;2023-05-07T12:17:48;94498.50;;;22.96;32.51
35778;BME280;21899;42.662;23.316;2023-05-07T12:20:14;94492.56;;;23.06;31.29
35778;BME280;21899;42.662;23.316;2023-05-07T12:22:40;94486.22;;;23.00;31.06
35778;BME280;21899;42.662;23.316;2023-05-07T12:25:06;94490.59;;;23.07;30.83
35778;BME280;21899;42.662;23.316;2023-05-07T12:27:31;94496.78;;;23.16;30.81
35778;BME280;21899;42.662;23.316;2023-05-07T12:29:57;94473.88;;;23.14;30.67
35778;BME280;21899;42.662;23.316;2023-05-07T12:32:24;94484.69;;;22.99;30.17
35778;BME280;21899;42.662;23.316;2023-05-07T12:34:50;94469.19;;;22.73;30.63
35778;BME280;21899;42.662;23.316;2023-05-07T12:37:16;94467.19;;;22.82;31.19
35778;BME280;21899;42.662;23.316;2023-05-07T12:39:47;94470.47;;;22.95;30.56
35778;BME280;21899;42.662;23.316;2023-05-07T12:42:16;94473.47;;;22.97;30.44
35778;BME280;21899;42.662;23.316;2023-05-07T12:44:45;94463.34;;;22.98;31.07
35778;BME280;21899;42.662;23.316;2023-05-07T12:47:11;94470.97;;;23.17;30.32
35778;BME280;21899;42.662;23.316;2023-05-07T12:49:37;94468.31;;;22.99;30.60
35778;BME280;21899;42.662;23.316;2023-05-07T12:52:04;94460.56;;;23.07;31.10
35778;BME280;21899;42.662;23.316;2023-05-07T12:54:36;94464.00;;;23.16;30.37
35778;BME280;21899;42.662;23.316;2023-05-07T12:57:07;94451.13;;;23.17;30.06
35778;BME280;21899;42.662;23.316;2023-05-07T13:01:58;94443.75;;;23.32;30.35
35778;BME280;21899;42.662;23.316;2023-05-07T13:04:24;94447.03;;;23.45;29.99
35778;BME280;21899;42.662;23.316;2023-05-07T13:06:50;94441.28;;;23.43;29.76